sensor_id;sensor_type;location;lat;lon;timestamp;P1;durP1;ratioP1;P2;durP2;ratioP2
59788;SDS011;47353;51.614;5.530;2023-09-08T00:01:57;13.48;;;10.95;;
59788;SDS011;47353;51.614;5.530;2023-09-08T00:04:22;16.20;;;10.77;;
59788;SDS011;47353;51.614;5.530;2023-09-08T00:06:48;15.57;;;11.32;;
59788;SDS011;47353;51.614;5.530;2023-09-08T00:09:13;14.20;;;11.05;;
59788;SDS011;47353;51.614;5.530;2023-09-08T00:11:39;12.85;;;10.68;;
59788;SDS011;47353;51.614;5.530;2023-09-08T00:14:04;14.60;;;11.13;;
59788;SDS011;47353;51.614;5.530;2023-09-08T00:16:30;13.98;;;10.80;;
59788;SDS011;47353;51.614;5.530;2023-09-08T00:18:55;14.25;;;10.45;;
59788;SDS011;47353;51.614;5.530;2023-09-08T00:21:23;13.13;;;10.80;;
59788;SDS011;47353;51.614;5.530;2023-09-08T00:23:49;13.32;;;10.48;;
59788;SDS011;47353;51.614;5.530;2023-09-08T00:26:14;13.05;;;11.00;;
59788;SDS011;47353;51.614;5.530;2023-09-08T00:28:40;11.40;;;10.13;;
59788;SDS011;47353;51.614;5.530;2023-09-08T00:31:05;14.40;;;11.13;;
59788;SDS011;47353;51.614;5.530;2023-09-08T00:33:30;15.15;;;10.85;;
59788;SDS011;47353;51.614;5.530;2023-09-08T00:35:56;13.65;;;10.77;;
59788;SDS011;47353;51.614;5.530;2023-09-08T00:38:22;16.73;;;11.07;;
59788;SDS011;47353;51.614;5.530;2023-09-08T00:40:48;12.23;;;10.50;;
59788;SDS011;47353;51.614;5.530;2023-09-08T00:43:14;15.48;;;10.82;;
59788;SDS011;47353;51.614;5.530;2023-09-08T00:45:40;13.90;;;10.60;;
59788;SDS011;47353;51.614;5.530;2023-09-08T00:48:07;15.23;;;10.52;;
59788;SDS011;47353;51.614;5.530;2023-09-08T00:50:34;13.40;;;10.45;;
59788;SDS011;47353;51.614;5.530;2023-09-08T00:53:01;13.40;;;10.20;;
59788;SDS011;47353;51.614;5.530;2023-09-08T00:55:28;13.43;;;10.65;;
59788;SDS011;47353;51.614;5.530;2023-09-08T00:57:54;15.32;;;11.02;;
59788;SDS011;47353;51.614;5.530;2023-09-08T01:00:20;14.93;;;11.10;;
59788;SDS011;47353;51.614;5.530;2023-09-08T01:02:45;12.48;;;11.18;;
59788;SDS011;47353;51.614;5.530;2023-09-08T01:05:11;15.35;;;11.27;;
59788;SDS011;47353;51.614;5.530;2023-09-08T01:07:39;15.85;;;11.63;;
59788;SDS011;47353;51.614;5.530;2023-09-08T01:10:05;14.13;;;10.88;;
59788;SDS011;47353;51.614;5.530;2023-09-08T01:12:32;13.57;;;11.18;;
59788;SDS011;47353;51.614;5.530;2023-09-08T01:15:01;15.18;;;11.27;;
59788;SDS011;47353;51.614;5.530;2023-09-08T01:17:27;13.88;;;11.63;;
59788;SDS011;47353;51.614;5.530;2023-09-08T01:19:55;17.60;;;11.65;;
59788;SDS011;47353;51.614;5.530;2023-09-08T01:27:43;14.38;;;11.77;;
59788;SDS011;47353;51.614;5.530;2023-09-08T01:30:12;15.27;;;11.95;;
59788;SDS011;47353;51.614;5.530;2023-09-08T01:32:38;15.32;;;12.10;;
59788;SDS011;47353;51.614;5.530;2023-09-08T01:35:05;12.90;;;11.60;;
59788;SDS011;47353;51.614;5.530;2023-09-08T01:37:31;14.52;;;11.90;;
59788;SDS011;47353;51.614;5.530;2023-09-08T01:39:57;16.23;;;12.20;;
59788;SDS011;47353;51.614;5.530;2023-09-08T01:42:22;14.55;;;12.93;;
59788;SDS011;47353;51.614;5.530;2023-09-08T01:44:47;16.48;;;12.65;;
59788;SDS011;47353;51.614;5.530;2023-09-08T01:47:13;17.08;;;12.52;;
59788;SDS011;47353;51.614;5.530;2023-09-08T01:49:38;16.20;;;13.25;;
59788;SDS011;47353;51.614;5.530;2023-09-08T01:52:04;17.27;;;12.57;;
59788;SDS011;47353;51.614;5.530;2023-09-08T01:54:30;14.43;;;12.43;;
59788;SDS011;47353;51.614;5.530;2023-09-08T01:56:55;17.08;;;12.57;;
59788;SDS011;47353;51.614;5.530;2023-09-08T01:59:21;16.92;;;13.35;;
59788;SDS011;47353;51.614;5.530;2023-09-08T02:01:46;15.95;;;12.20;;
59788;SDS011;47353;51.614;5.530;2023-09-08T02:04:11;15.55;;;13.43;;
59788;SDS011;47353;51.614;5.530;2023-09-08T02:06:37;17.90;;;13.00;;
59788;SDS011;47353;51.614;5.530;2023-09-08T02:09:02;15.18;;;12.77;;
59788;SDS011;47353;51.614;5.530;2023-09-08T02:11:28;14.93;;;13.02;;
59788;SDS011;47353;51.614;5.530;2023-09-08T02:13:54;15.63;;;12.88;;
59788;SDS011;47353;51.614;5.530;2023-09-08T02:16:19;15.35;;;13.30;;
59788;SDS011;47353;51.614;5.530;2023-09-08T02:18:45;16.83;;;13.40;;
59788;SDS011;47353;51.614;5.530;2023-09-08T02:21:10;17.83;;;13.15;;
59788;SDS011;47353;51.614;5.530;2023-09-08T02:23:36;15.32;;;12.52;;
59788;SDS011;47353;51.614;5.530;2023-09-08T02:26:02;16.13;;;13.32;;
59788;SDS011;47353;51.614;5.530;2023-09-08T02:28:27;16.90;;;13.30;;
59788;SDS011;47353;51.614;5.530;2023-09-08T02:30:53;16.35;;;13.15;;
59788;SDS011;47353;51.614;5.530;2023-09-08T02:33:19;17.23;;;13.85;;
59788;SDS011;47353;51.614;5.530;2023-09-08T02:35:44;19.58;;;13.45;;
59788;SDS011;47353;51.614;5.530;2023-09-08T02:38:09;17.42;;;13.55;;
59788;SDS011;47353;51.614;5.530;2023-09-08T02:40:35;14.80;;;13.00;;
59788;SDS011;47353;51.614;5.530;2023-09-08T02:43:01;17.80;;;13.85;;
59788;SDS011;47353;51.614;5.530;2023-09-08T02:45:27;18.52;;;14.88;;
59788;SDS011;47353;51.614;5.530;2023-09-08T02:47:52;16.85;;;14.30;;
59788;SDS011;47353;51.614;5.530;2023-09-08T02:50:18;21.23;;;14.45;;
59788;SDS011;47353;51.614;5.530;2023-09-08T02:52:43;18.45;;;13.65;;
59788;SDS011;47353;51.614;5.530;2023-09-08T02:55:11;17.88;;;14.35;;
59788;SDS011;47353;51.614;5.530;2023-09-08T02:57:37;18.17;;;14.38;;
59788;SDS011;47353;51.614;5.530;2023-09-08T03:00:03;18.45;;;14.35;;
59788;SDS011;47353;51.614;5.530;2023-09-08T03:02:30;17.02;;;15.00;;
59788;SDS011;47353;51.614;5.530;2023-09-08T03:04:56;16.58;;;14.77;;
59788;SDS011;47353;51.614;5.530;2023-09-08T03:07:22;17.85;;;13.95;;
59788;SDS011;47353;51.614;5.530;2023-09-08T03:09:47;19.27;;;14.52;;
59788;SDS011;47353;51.614;5.530;2023-09-08T03:12:13;17.30;;;14.95;;
59788;SDS011;47353;51.614;5.530;2023-09-08T03:14:38;18.30;;;14.77;;
59788;SDS011;47353;51.614;5.530;2023-09-08T03:17:03;18.08;;;15.05;;
59788;SDS011;47353;51.614;5.530;2023-09-08T03:19:29;17.45;;;14.50;;
59788;SDS011;47353;51.614;5.530;2023-09-08T03:21:54;21.27;;;15.43;;
59788;SDS011;47353;51.614;5.530;2023-09-08T03:24:19;19.80;;;15.20;;
59788;SDS011;47353;51.614;5.530;2023-09-08T03:26:45;19.10;;;14.77;;
59788;SDS011;47353;51.614;5.530;2023-09-08T03:29:10;21.00;;;14.98;;
59788;SDS011;47353;51.614;5.530;2023-09-08T03:31:36;21.95;;;15.50;;
59788;SDS011;47353;51.614;5.530;2023-09-08T03:34:01;18.15;;;15.52;;
59788;SDS011;47353;51.614;5.530;2023-09-08T03:36:26;20.13;;;15.30;;
59788;SDS011;47353;51.614;5.530;2023-09-08T03:38:52;17.52;;;15.40;;
59788;SDS011;47353;51.614;5.530;2023-09-08T03:41:17;21.52;;;15.25;;
59788;SDS011;47353;51.614;5.530;2023-09-08T03:43:43;18.45;;;15.52;;
59788;SDS011;47353;51.614;5.530;2023-09-08T03:46:08;21.08;;;15.98;;
59788;SDS011;47353;51.614;5.530;2023-09-08T03:48:34;21.35;;;15.48;;
59788;SDS011;47353;51.614;5.530;2023-09-08T03:50:59;22.17;;;18.20;;
59788;SDS011;47353;51.614;5.530;2023-09-08T03:53:24;24.88;;;17.42;;
59788;SDS011;47353;51.614;5.530;2023-09-08T03:55:50;16.85;;;15.02;;
59788;SDS011;47353;51.614;5.530;2023-09-08T03:58:16;18.25;;;15.70;;
59788;SDS011;47353;51.614;5.530;2023-09-08T04:00:41;17.08;;;15.25;;
59788;SDS011;47353;51.614;5.530;2023-09-08T04:03:08;17.42;;;15.50;;
59788;SDS011;47353;51.614;5.530;2023-09-08T04:05:34;20.20;;;16.27;;
59788;SDS011;47353;51.614;5.530;2023-09-08T04:07:59;21.17;;;15.70;;
59788;SDS011;47353;51.614;5.530;2023-09-08T04:10:25;20.25;;;15.35;;
59788;SDS011;47353;51.614;5.530;2023-09-08T04:12:50;18.17;;;15.93;;
59788;SDS011;47353;51.614;5.530;2023-09-08T04:15:16;20.50;;;15.23;;
59788;SDS011;47353;51.614;5.530;2023-09-08T04:17:41;21.25;;;15.85;;
59788;SDS011;47353;51.614;5.530;2023-09-08T04:20:07;18.80;;;15.82;;
59788;SDS011;47353;51.614;5.530;2023-09-08T04:22:33;20.40;;;15.20;;
59788;SDS011;47353;51.614;5.530;2023-09-08T04:25:00;18.55;;;15.45;;
59788;SDS011;47353;51.614;5.530;2023-09-08T04:27:26;17.48;;;15.38;;
59788;SDS011;47353;51.614;5.530;2023-09-08T04:29:51;24.38;;;16.45;;
59788;SDS011;47353;51.614;5.530;2023-09-08T04:32:16;21.13;;;16.02;;
59788;SDS011;47353;51.614;5.530;2023-09-08T04:34:42;24.40;;;15.85;;
59788;SDS011;47353;51.614;5.530;2023-09-08T04:37:09;21.02;;;16.02;;
59788;SDS011;47353;51.614;5.530;2023-09-08T04:39:35;19.83;;;16.08;;
59788;SDS011;47353;51.614;5.530;2023-09-08T04:42:02;20.67;;;16.23;;
59788;SDS011;47353;51.614;5.530;2023-09-08T04:44:28;20.67;;;16.35;;
59788;SDS011;47353;51.614;5.530;2023-09-08T04:46:53;18.73;;;16.25;;
59788;SDS011;47353;51.614;5.530;2023-09-08T04:49:19;18.75;;;16.38;;
59788;SDS011;47353;51.614;5.530;2023-09-08T04:51:44;21.27;;;17.25;;
59788;SDS011;47353;51.614;5.530;2023-09-08T04:54:10;20.80;;;16.70;;
59788;SDS011;47353;51.614;5.530;2023-09-08T04:56:36;19.10;;;16.63;;
59788;SDS011;47353;51.614;5.530;2023-09-08T04:59:04;20.30;;;16.50;;
59788;SDS011;47353;51.614;5.530;2023-09-08T05:01:29;22.23;;;17.25;;
59788;SDS011;47353;51.614;5.530;2023-09-08T05:03:58;21.80;;;17.48;;
59788;SDS011;47353;51.614;5.530;2023-09-08T05:06:26;21.95;;;17.17;;
59788;SDS011;47353;51.614;5.530;2023-09-08T05:08:51;22.88;;;16.30;;
59788;SDS011;47353;51.614;5.530;2023-09-08T05:11:17;21.75;;;16.90;;
59788;SDS011;47353;51.614;5.530;2023-09-08T05:13:44;21.15;;;16.85;;
59788;SDS011;47353;51.614;5.530;2023-09-08T05:16:10;19.98;;;16.55;;
59788;SDS011;47353;51.614;5.530;2023-09-08T05:18:38;19.88;;;17.33;;
59788;SDS011;47353;51.614;5.530;2023-09-08T05:21:04;22.25;;;17.48;;
59788;SDS011;47353;51.614;5.530;2023-09-08T05:23:29;21.50;;;17.38;;
59788;SDS011;47353;51.614;5.530;2023-09-08T05:25:55;24.05;;;16.92;;
59788;SDS011;47353;51.614;5.530;2023-09-08T05:28:20;19.25;;;16.75;;
59788;SDS011;47353;51.614;5.530;2023-09-08T05:30:46;21.00;;;16.65;;
59788;SDS011;47353;51.614;5.530;2023-09-08T05:33:11;22.17;;;16.95;;
59788;SDS011;47353;51.614;5.530;2023-09-08T05:35:37;23.10;;;17.17;;
59788;SDS011;47353;51.614;5.530;2023-09-08T05:38:03;23.02;;;17.17;;
59788;SDS011;47353;51.614;5.530;2023-09-08T05:40:28;21.20;;;16.70;;
59788;SDS011;47353;51.614;5.530;2023-09-08T05:42:54;18.73;;;16.50;;
59788;SDS011;47353;51.614;5.530;2023-09-08T05:45:19;19.90;;;17.70;;
59788;SDS011;47353;51.614;5.530;2023-09-08T05:47:45;21.58;;;17.35;;
59788;SDS011;47353;51.614;5.530;2023-09-08T05:50:10;19.88;;;17.13;;
59788;SDS011;47353;51.614;5.530;2023-09-08T05:52:36;20.63;;;17.33;;
59788;SDS011;47353;51.614;5.530;2023-09-08T05:55:01;22.35;;;16.83;;
59788;SDS011;47353;51.614;5.530;2023-09-08T05:57:27;21.33;;;16.85;;
59788;SDS011;47353;51.614;5.530;2023-09-08T05:59:52;20.80;;;17.30;;
59788;SDS011;47353;51.614;5.530;2023-09-08T06:02:17;22.25;;;18.17;;
59788;SDS011;47353;51.614;5.530;2023-09-08T06:04:43;23.08;;;17.83;;
59788;SDS011;47353;51.614;5.530;2023-09-08T06:07:09;25.65;;;17.90;;
59788;SDS011;47353;51.614;5.530;2023-09-08T06:09:34;24.45;;;19.13;;
59788;SDS011;47353;51.614;5.530;2023-09-08T06:11:59;27.70;;;22.13;;
59788;SDS011;47353;51.614;5.530;2023-09-08T06:14:25;23.63;;;18.20;;
59788;SDS011;47353;51.614;5.530;2023-09-08T06:16:51;22.70;;;18.30;;
59788;SDS011;47353;51.614;5.530;2023-09-08T06:19:16;25.00;;;18.67;;
59788;SDS011;47353;51.614;5.530;2023-09-08T06:21:41;24.92;;;18.75;;
59788;SDS011;47353;51.614;5.530;2023-09-08T06:24:07;21.90;;;17.85;;
59788;SDS011;47353;51.614;5.530;2023-09-08T06:26:32;23.63;;;18.05;;
59788;SDS011;47353;51.614;5.530;2023-09-08T06:28:58;21.00;;;17.77;;
59788;SDS011;47353;51.614;5.530;2023-09-08T06:31:23;20.35;;;17.88;;
59788;SDS011;47353;51.614;5.530;2023-09-08T06:33:48;22.60;;;17.40;;
59788;SDS011;47353;51.614;5.530;2023-09-08T06:36:17;20.10;;;17.55;;
59788;SDS011;47353;51.614;5.530;2023-09-08T06:38:43;21.85;;;17.85;;
59788;SDS011;47353;51.614;5.530;2023-09-08T06:41:09;19.77;;;17.48;;
59788;SDS011;47353;51.614;5.530;2023-09-08T06:43:36;20.85;;;18.02;;
59788;SDS011;47353;51.614;5.530;2023-09-08T06:46:02;19.95;;;17.50;;
59788;SDS011;47353;51.614;5.530;2023-09-08T06:48:27;20.42;;;17.52;;
59788;SDS011;47353;51.614;5.530;2023-09-08T06:50:53;23.00;;;18.13;;
59788;SDS011;47353;51.614;5.530;2023-09-08T06:53:21;20.65;;;18.05;;
59788;SDS011;47353;51.614;5.530;2023-09-08T06:55:49;23.65;;;18.20;;
59788;SDS011;47353;51.614;5.530;2023-09-08T06:58:14;21.50;;;18.33;;
59788;SDS011;47353;51.614;5.530;2023-09-08T07:00:40;21.95;;;18.25;;
59788;SDS011;47353;51.614;5.530;2023-09-08T07:03:07;20.63;;;17.35;;
59788;SDS011;47353;51.614;5.530;2023-09-08T07:05:33;22.35;;;18.35;;
59788;SDS011;47353;51.614;5.530;2023-09-08T07:07:59;24.90;;;18.63;;
59788;SDS011;47353;51.614;5.530;2023-09-08T07:10:24;25.58;;;18.35;;
59788;SDS011;47353;51.614;5.530;2023-09-08T07:12:50;21.92;;;18.40;;
59788;SDS011;47353;51.614;5.530;2023-09-08T07:15:15;20.70;;;18.48;;
59788;SDS011;47353;51.614;5.530;2023-09-08T07:17:41;23.30;;;18.30;;
59788;SDS011;47353;51.614;5.530;2023-09-08T07:20:07;20.30;;;17.30;;
59788;SDS011;47353;51.614;5.530;2023-09-08T07:22:33;20.25;;;17.05;;
59788;SDS011;47353;51.614;5.530;2023-09-08T07:24:58;20.05;;;16.90;;
59788;SDS011;47353;51.614;5.530;2023-09-08T07:27:24;20.80;;;17.27;;
59788;SDS011;47353;51.614;5.530;2023-09-08T07:29:49;18.13;;;16.20;;
59788;SDS011;47353;51.614;5.530;2023-09-08T07:32:15;21.65;;;16.60;;
59788;SDS011;47353;51.614;5.530;2023-09-08T07:34:41;17.73;;;15.93;;
59788;SDS011;47353;51.614;5.530;2023-09-08T07:37:07;19.48;;;15.68;;
59788;SDS011;47353;51.614;5.530;2023-09-08T07:39:32;19.00;;;16.20;;
59788;SDS011;47353;51.614;5.530;2023-09-08T07:41:58;18.08;;;15.77;;
59788;SDS011;47353;51.614;5.530;2023-09-08T07:44:23;19.70;;;15.13;;
59788;SDS011;47353;51.614;5.530;2023-09-08T07:46:49;16.92;;;15.20;;
59788;SDS011;47353;51.614;5.530;2023-09-08T07:49:16;18.45;;;14.55;;
59788;SDS011;47353;51.614;5.530;2023-09-08T07:51:45;17.40;;;14.52;;
59788;SDS011;47353;51.614;5.530;2023-09-08T07:54:11;18.55;;;14.15;;
59788;SDS011;47353;51.614;5.530;2023-09-08T07:56:36;15.25;;;13.10;;
59788;SDS011;47353;51.614;5.530;2023-09-08T07:59:02;14.80;;;13.25;;
59788;SDS011;47353;51.614;5.530;2023-09-08T08:01:27;17.67;;;13.38;;
59788;SDS011;47353;51.614;5.530;2023-09-08T08:03:53;15.30;;;13.48;;
59788;SDS011;47353;51.614;5.530;2023-09-08T08:06:18;15.13;;;12.68;;
59788;SDS011;47353;51.614;5.530;2023-09-08T08:08:44;15.10;;;13.50;;
59788;SDS011;47353;51.614;5.530;2023-09-08T08:11:12;16.80;;;12.65;;
59788;SDS011;47353;51.614;5.530;2023-09-08T08:13:39;14.70;;;11.73;;
59788;SDS011;47353;51.614;5.530;2023-09-08T08:16:05;15.38;;;12.05;;
59788;SDS011;47353;51.614;5.530;2023-09-08T08:18:30;12.55;;;11.30;;
59788;SDS011;47353;51.614;5.530;2023-09-08T08:20:55;13.68;;;12.27;;
59788;SDS011;47353;51.614;5.530;2023-09-08T08:23:21;13.90;;;11.85;;
59788;SDS011;47353;51.614;5.530;2023-09-08T08:25:48;15.43;;;11.05;;
59788;SDS011;47353;51.614;5.530;2023-09-08T08:28:14;12.60;;;11.30;;
59788;SDS011;47353;51.614;5.530;2023-09-08T08:30:39;12.68;;;11.48;;
59788;SDS011;47353;51.614;5.530;2023-09-08T08:33:05;13.40;;;10.65;;
59788;SDS011;47353;51.614;5.530;2023-09-08T08:35:31;13.48;;;10.90;;
59788;SDS011;47353;51.614;5.530;2023-09-08T08:37:57;11.48;;;10.13;;
59788;SDS011;47353;51.614;5.530;2023-09-08T08:40:24;13.95;;;10.65;;
59788;SDS011;47353;51.614;5.530;2023-09-08T08:42:54;12.45;;;10.30;;
59788;SDS011;47353;51.614;5.530;2023-09-08T08:45:20;16.65;;;11.45;;
59788;SDS011;47353;51.614;5.530;2023-09-08T08:47:48;13.52;;;10.85;;
59788;SDS011;47353;51.614;5.530;2023-09-08T08:50:15;14.25;;;9.63;;
59788;SDS011;47353;51.614;5.530;2023-09-08T08:52:42;11.25;;;9.98;;
59788;SDS011;47353;51.614;5.530;2023-09-08T08:55:08;10.82;;;8.55;;
59788;SDS011;47353;51.614;5.530;2023-09-08T08:57:36;10.95;;;9.25;;
59788;SDS011;47353;51.614;5.530;2023-09-08T09:00:18;13.40;;;8.48;;
59788;SDS011;47353;51.614;5.530;2023-09-08T09:02:43;11.80;;;9.82;;
59788;SDS011;47353;51.614;5.530;2023-09-08T09:05:14;11.80;;;8.50;;
59788;SDS011;47353;51.614;5.530;2023-09-08T09:07:41;9.05;;;7.53;;
59788;SDS011;47353;51.614;5.530;2023-09-08T09:10:07;9.90;;;7.75;;
59788;SDS011;47353;51.614;5.530;2023-09-08T09:12:38;11.65;;;9.30;;
59788;SDS011;47353;51.614;5.530;2023-09-08T09:15:03;10.82;;;9.82;;
59788;SDS011;47353;51.614;5.530;2023-09-08T09:17:30;11.50;;;8.52;;
59788;SDS011;47353;51.614;5.530;2023-09-08T09:20:12;8.93;;;8.00;;
59788;SDS011;47353;51.614;5.530;2023-09-08T09:22:42;10.90;;;9.43;;
59788;SDS011;47353;51.614;5.530;2023-09-08T09:25:25;9.48;;;8.50;;
59788;SDS011;47353;51.614;5.530;2023-09-08T09:27:53;10.88;;;8.60;;
59788;SDS011;47353;51.614;5.530;2023-09-08T09:30:20;9.27;;;7.93;;
59788;SDS011;47353;51.614;5.530;2023-09-08T09:32:46;11.02;;;7.32;;
59788;SDS011;47353;51.614;5.530;2023-09-08T09:35:14;9.93;;;7.25;;
59788;SDS011;47353;51.614;5.530;2023-09-08T09:37:40;8.13;;;6.90;;
59788;SDS011;47353;51.614;5.530;2023-09-08T09:40:06;8.23;;;7.00;;
59788;SDS011;47353;51.614;5.530;2023-09-08T09:42:32;8.68;;;7.03;;
59788;SDS011;47353;51.614;5.530;2023-09-08T09:44:59;8.98;;;8.13;;
59788;SDS011;47353;51.614;5.530;2023-09-08T09:47:25;9.35;;;7.78;;
59788;SDS011;47353;51.614;5.530;2023-09-08T09:49:51;9.20;;;6.63;;
59788;SDS011;47353;51.614;5.530;2023-09-08T09:52:21;8.20;;;6.80;;
59788;SDS011;47353;51.614;5.530;2023-09-08T09:54:56;8.45;;;7.50;;
59788;SDS011;47353;51.614;5.530;2023-09-08T09:57:23;7.90;;;7.20;;
59788;SDS011;47353;51.614;5.530;2023-09-08T09:59:48;8.80;;;6.78;;
59788;SDS011;47353;51.614;5.530;2023-09-08T10:02:15;9.93;;;6.50;;
59788;SDS011;47353;51.614;5.530;2023-09-08T10:04:44;6.95;;;6.10;;
59788;SDS011;47353;51.614;5.530;2023-09-08T10:07:12;11.35;;;6.32;;
59788;SDS011;47353;51.614;5.530;2023-09-08T10:09:38;7.78;;;5.82;;
59788;SDS011;47353;51.614;5.530;2023-09-08T10:12:04;5.65;;;5.25;;
59788;SDS011;47353;51.614;5.530;2023-09-08T10:14:31;8.10;;;5.28;;
59788;SDS011;47353;51.614;5.530;2023-09-08T10:17:00;7.47;;;5.10;;
59788;SDS011;47353;51.614;5.530;2023-09-08T10:19:27;6.32;;;5.05;;
59788;SDS011;47353;51.614;5.530;2023-09-08T10:21:54;5.53;;;4.90;;
59788;SDS011;47353;51.614;5.530;2023-09-08T10:24:26;6.90;;;6.00;;
59788;SDS011;47353;51.614;5.530;2023-09-08T10:26:58;6.43;;;5.90;;
59788;SDS011;47353;51.614;5.530;2023-09-08T10:29:29;6.95;;;5.78;;
59788;SDS011;47353;51.614;5.530;2023-09-08T10:31:56;6.38;;;5.72;;
59788;SDS011;47353;51.614;5.530;2023-09-08T10:34:22;8.80;;;5.25;;
59788;SDS011;47353;51.614;5.530;2023-09-08T10:36:49;7.10;;;5.30;;
59788;SDS011;47353;51.614;5.530;2023-09-08T10:39:30;5.80;;;5.30;;
59788;SDS011;47353;51.614;5.530;2023-09-08T10:47:19;8.43;;;5.40;;
59788;SDS011;47353;51.614;5.530;2023-09-08T10:49:48;7.47;;;5.13;;
59788;SDS011;47353;51.614;5.530;2023-09-08T10:52:15;6.47;;;4.60;;
59788;SDS011;47353;51.614;5.530;2023-09-08T10:57:14;10.18;;;5.75;;
59788;SDS011;47353;51.614;5.530;2023-09-08T10:59:58;6.20;;;4.72;;
59788;SDS011;47353;51.614;5.530;2023-09-08T11:02:39;5.90;;;4.97;;
59788;SDS011;47353;51.614;5.530;2023-09-08T11:05:06;5.82;;;5.00;;
59788;SDS011;47353;51.614;5.530;2023-09-08T11:07:36;7.28;;;5.20;;
59788;SDS011;47353;51.614;5.530;2023-09-08T11:10:02;7.72;;;4.85;;
59788;SDS011;47353;51.614;5.530;2023-09-08T11:12:28;11.20;;;4.68;;
59788;SDS011;47353;51.614;5.530;2023-09-08T11:14:54;8.38;;;4.70;;
59788;SDS011;47353;51.614;5.530;2023-09-08T11:17:20;6.90;;;4.55;;
59788;SDS011;47353;51.614;5.530;2023-09-08T11:19:51;4.85;;;4.18;;
59788;SDS011;47353;51.614;5.530;2023-09-08T11:22:17;5.40;;;4.90;;
59788;SDS011;47353;51.614;5.530;2023-09-08T11:24:43;5.70;;;4.72;;
59788;SDS011;47353;51.614;5.530;2023-09-08T11:27:10;6.32;;;5.07;;
59788;SDS011;47353;51.614;5.530;2023-09-08T11:29:36;8.10;;;5.78;;
59788;SDS011;47353;51.614;5.530;2023-09-08T11:32:05;9.13;;;5.10;;
59788;SDS011;47353;51.614;5.530;2023-09-08T11:34:32;7.82;;;5.25;;
59788;SDS011;47353;51.614;5.530;2023-09-08T11:36:59;7.25;;;5.25;;
59788;SDS011;47353;51.614;5.530;2023-09-08T11:39:24;7.22;;;4.90;;
59788;SDS011;47353;51.614;5.530;2023-09-08T11:41:53;5.57;;;5.07;;
59788;SDS011;47353;51.614;5.530;2023-09-08T11:44:19;6.80;;;4.90;;
59788;SDS011;47353;51.614;5.530;2023-09-08T11:46:45;7.30;;;4.90;;
59788;SDS011;47353;51.614;5.530;2023-09-08T11:49:13;6.68;;;4.70;;
59788;SDS011;47353;51.614;5.530;2023-09-08T11:51:38;6.70;;;4.50;;
59788;SDS011;47353;51.614;5.530;2023-09-08T11:54:04;8.10;;;4.78;;
59788;SDS011;47353;51.614;5.530;2023-09-08T11:56:30;7.28;;;5.35;;
59788;SDS011;47353;51.614;5.530;2023-09-08T11:58:56;4.80;;;4.30;;
59788;SDS011;47353;51.614;5.530;2023-09-08T12:01:22;8.40;;;4.65;;
59788;SDS011;47353;51.614;5.530;2023-09-08T12:03:54;6.80;;;4.80;;
59788;SDS011;47353;51.614;5.530;2023-09-08T12:08:49;7.00;;;4.68;;
59788;SDS011;47353;51.614;5.530;2023-09-08T12:11:15;12.15;;;4.45;;
59788;SDS011;47353;51.614;5.530;2023-09-08T12:13:40;6.78;;;4.38;;
59788;SDS011;47353;51.614;5.530;2023-09-08T12:16:19;6.15;;;4.63;;
59788;SDS011;47353;51.614;5.530;2023-09-08T12:18:48;8.23;;;5.10;;
59788;SDS011;47353;51.614;5.530;2023-09-08T12:21:14;7.75;;;4.43;;
59788;SDS011;47353;51.614;5.530;2023-09-08T12:23:47;6.07;;;4.43;;
59788;SDS011;47353;51.614;5.530;2023-09-08T12:26:16;8.95;;;4.20;;
59788;SDS011;47353;51.614;5.530;2023-09-08T12:28:42;6.53;;;4.30;;
59788;SDS011;47353;51.614;5.530;2023-09-08T12:31:08;6.97;;;4.45;;
59788;SDS011;47353;51.614;5.530;2023-09-08T12:33:35;8.25;;;4.35;;
59788;SDS011;47353;51.614;5.530;2023-09-08T12:36:14;5.47;;;4.20;;
59788;SDS011;47353;51.614;5.530;2023-09-08T12:38:40;6.95;;;4.28;;
59788;SDS011;47353;51.614;5.530;2023-09-08T12:41:06;7.22;;;4.40;;
59788;SDS011;47353;51.614;5.530;2023-09-08T12:43:31;4.70;;;4.30;;
59788;SDS011;47353;51.614;5.530;2023-09-08T12:45:57;6.15;;;4.13;;
59788;SDS011;47353;51.614;5.530;2023-09-08T12:48:22;6.13;;;4.20;;
59788;SDS011;47353;51.614;5.530;2023-09-08T12:50:48;6.95;;;4.30;;
59788;SDS011;47353;51.614;5.530;2023-09-08T12:53:14;6.43;;;4.18;;
59788;SDS011;47353;51.614;5.530;2023-09-08T12:55:40;6.88;;;4.10;;
59788;SDS011;47353;51.614;5.530;2023-09-08T12:58:05;7.18;;;4.07;;
59788;SDS011;47353;51.614;5.530;2023-09-08T13:00:31;6.18;;;4.20;;
59788;SDS011;47353;51.614;5.530;2023-09-08T13:02:56;5.35;;;4.05;;
59788;SDS011;47353;51.614;5.530;2023-09-08T13:05:21;7.53;;;3.85;;
59788;SDS011;47353;51.614;5.530;2023-09-08T13:07:47;6.18;;;4.30;;
59788;SDS011;47353;51.614;5.530;2023-09-08T13:10:12;8.27;;;4.43;;
59788;SDS011;47353;51.614;5.530;2023-09-08T13:12:38;6.35;;;4.25;;
59788;SDS011;47353;51.614;5.530;2023-09-08T13:15:03;5.95;;;3.92;;
59788;SDS011;47353;51.614;5.530;2023-09-08T13:17:29;6.03;;;3.95;;
59788;SDS011;47353;51.614;5.530;2023-09-08T13:19:54;7.15;;;3.92;;
59788;SDS011;47353;51.614;5.530;2023-09-08T13:22:20;9.00;;;4.00;;
59788;SDS011;47353;51.614;5.530;2023-09-08T13:24:45;6.38;;;4.20;;
59788;SDS011;47353;51.614;5.530;2023-09-08T13:27:11;6.57;;;4.30;;
59788;SDS011;47353;51.614;5.530;2023-09-08T13:29:36;6.82;;;3.80;;
59788;SDS011;47353;51.614;5.530;2023-09-08T13:32:03;6.90;;;3.60;;
59788;SDS011;47353;51.614;5.530;2023-09-08T13:34:29;5.55;;;3.88;;
59788;SDS011;47353;51.614;5.530;2023-09-08T13:36:54;6.10;;;3.75;;
59788;SDS011;47353;51.614;5.530;2023-09-08T13:39:20;8.02;;;4.20;;
59788;SDS011;47353;51.614;5.530;2023-09-08T13:44:18;5.22;;;3.70;;
59788;SDS011;47353;51.614;5.530;2023-09-08T13:46:45;8.65;;;4.05;;
59788;SDS011;47353;51.614;5.530;2023-09-08T13:49:14;4.88;;;4.15;;
59788;SDS011;47353;51.614;5.530;2023-09-08T13:51:40;5.80;;;3.97;;
59788;SDS011;47353;51.614;5.530;2023-09-08T13:54:06;6.40;;;4.28;;
59788;SDS011;47353;51.614;5.530;2023-09-08T13:56:32;6.15;;;3.75;;
59788;SDS011;47353;51.614;5.530;2023-09-08T13:58:58;6.55;;;4.05;;
59788;SDS011;47353;51.614;5.530;2023-09-08T14:01:23;7.03;;;4.20;;
59788;SDS011;47353;51.614;5.530;2023-09-08T14:03:49;5.82;;;3.97;;
59788;SDS011;47353;51.614;5.530;2023-09-08T14:06:17;5.93;;;3.80;;
59788;SDS011;47353;51.614;5.530;2023-09-08T14:08:43;6.10;;;3.60;;
59788;SDS011;47353;51.614;5.530;2023-09-08T14:11:09;5.20;;;3.80;;
59788;SDS011;47353;51.614;5.530;2023-09-08T14:13:34;4.85;;;4.10;;
59788;SDS011;47353;51.614;5.530;2023-09-08T14:16:00;7.60;;;3.97;;
59788;SDS011;47353;51.614;5.530;2023-09-08T14:18:25;4.30;;;3.90;;
59788;SDS011;47353;51.614;5.530;2023-09-08T14:20:51;5.18;;;4.10;;
59788;SDS011;47353;51.614;5.530;2023-09-08T14:23:16;6.47;;;4.05;;
59788;SDS011;47353;51.614;5.530;2023-09-08T14:25:41;5.47;;;4.13;;
59788;SDS011;47353;51.614;5.530;2023-09-08T14:28:07;6.60;;;4.13;;
59788;SDS011;47353;51.614;5.530;2023-09-08T14:30:33;5.97;;;4.20;;
59788;SDS011;47353;51.614;5.530;2023-09-08T14:33:00;6.05;;;4.18;;
59788;SDS011;47353;51.614;5.530;2023-09-08T14:35:25;8.50;;;4.20;;
59788;SDS011;47353;51.614;5.530;2023-09-08T14:37:50;4.95;;;4.20;;
59788;SDS011;47353;51.614;5.530;2023-09-08T14:40:16;7.45;;;4.22;;
59788;SDS011;47353;51.614;5.530;2023-09-08T14:42:41;8.57;;;4.32;;
59788;SDS011;47353;51.614;5.530;2023-09-08T14:45:07;5.80;;;4.47;;